createdAt,value
2019-06-26T00:00:48.578Z,22.70
2019-06-26T00:03:17.891Z,22.70
2019-06-26T00:05:47.213Z,22.70
2019-06-26T00:08:16.464Z,22.70
2019-06-26T00:10:46.659Z,22.70
2019-06-26T00:13:25.633Z,22.60
2019-06-26T00:15:46.851Z,22.60
2019-06-26T00:18:16.090Z,22.60
2019-06-26T00:20:45.317Z,22.50
2019-06-26T00:23:14.556Z,22.50
2019-06-26T00:25:43.804Z,22.50
2019-06-26T00:28:13.522Z,22.50
2019-06-26T00:30:42.835Z,22.50
2019-06-26T00:33:12.085Z,22.50
2019-06-26T00:35:42.398Z,22.50
2019-06-26T00:38:11.645Z,22.50
2019-06-26T00:40:40.893Z,22.50
2019-06-26T00:43:10.137Z,22.50
2019-06-26T00:45:39.437Z,22.40
2019-06-26T00:48:08.710Z,22.40
2019-06-26T00:50:37.944Z,22.30
2019-06-26T00:53:07.179Z,22.30
2019-06-26T00:55:36.433Z,22.30
2019-06-26T00:58:05.662Z,22.30
2019-06-26T01:00:36.532Z,22.20
2019-06-26T01:03:05.836Z,22.20
2019-06-26T01:05:35.239Z,22.10
2019-06-26T01:08:04.555Z,21.90
2019-06-26T01:10:33.847Z,21.90
2019-06-26T01:13:03.096Z,21.80
2019-06-26T01:15:32.418Z,21.80
2019-06-26T01:18:01.664Z,21.70
2019-06-26T01:20:30.982Z,21.80
2019-06-26T01:23:00.224Z,21.70
2019-06-26T01:25:29.459Z,21.70
2019-06-26T01:27:58.746Z,21.60
2019-06-26T01:30:27.973Z,21.60
2019-06-26T01:32:57.221Z,21.60
2019-06-26T01:35:26.487Z,21.50
2019-06-26T01:37:55.727Z,21.50
2019-06-26T01:40:25.893Z,21.50
2019-06-26T01:42:55.147Z,21.50
2019-06-26T01:45:24.383Z,21.40
2019-06-26T01:47:53.634Z,21.40
2019-06-26T01:50:22.869Z,21.40
2019-06-26T01:52:52.117Z,21.40
2019-06-26T01:55:21.348Z,21.30
2019-06-26T01:57:50.578Z,21.30
2019-06-26T02:00:19.817Z,21.30
2019-06-26T02:02:49.046Z,21.30
2019-06-26T02:05:18.553Z,21.20
2019-06-26T02:07:47.798Z,21.10
2019-06-26T02:10:17.040Z,21.20
2019-06-26T02:12:46.281Z,21.10
2019-06-26T02:15:15.512Z,21.10
2019-06-26T02:17:44.768Z,21.10
2019-06-26T02:20:14.039Z,21.00
2019-06-26T02:22:43.343Z,20.90
2019-06-26T02:25:12.967Z,20.90
2019-06-26T02:27:42.254Z,20.90
2019-06-26T02:30:11.563Z,21.00
2019-06-26T02:32:40.839Z,20.90
2019-06-26T02:35:10.858Z,20.80
2019-06-26T02:37:40.256Z,20.80
2019-06-26T02:40:09.549Z,20.90
2019-06-26T02:42:38.787Z,20.90
2019-06-26T02:45:08.025Z,20.80
2019-06-26T02:47:37.266Z,20.90
2019-06-26T02:50:06.518Z,20.90
2019-06-26T02:52:35.757Z,20.80
2019-06-26T02:55:05.518Z,20.80
2019-06-26T02:57:35.825Z,20.80
2019-06-26T03:00:05.341Z,20.80
2019-06-26T03:02:34.698Z,20.70
2019-06-26T03:05:05.014Z,20.70
2019-06-26T03:07:34.283Z,20.70
2019-06-26T03:10:04.855Z,20.70
2019-06-26T03:12:34.284Z,20.70
2019-06-26T03:15:09.190Z,20.70
2019-06-26T03:17:37.215Z,20.60
2019-06-26T03:20:06.516Z,20.50
2019-06-26T03:22:36.029Z,20.40
2019-06-26T03:25:05.657Z,20.30
2019-06-26T03:27:34.965Z,20.30
2019-06-26T03:30:05.197Z,20.30
2019-06-26T03:32:34.498Z,20.30
2019-06-26T03:35:03.917Z,20.40
2019-06-26T03:37:33.248Z,20.40
2019-06-26T03:40:02.502Z,20.50
2019-06-26T03:42:31.758Z,20.50
2019-06-26T03:45:00.996Z,20.50
2019-06-26T03:47:30.238Z,20.50
2019-06-26T03:49:59.466Z,20.50
2019-06-26T03:52:28.732Z,20.50
2019-06-26T03:54:57.980Z,20.40
2019-06-26T03:57:27.239Z,20.40
2019-06-26T03:59:56.580Z,20.50
2019-06-26T04:02:27.645Z,20.50
2019-06-26T04:04:57.033Z,20.50
2019-06-26T04:07:26.571Z,20.40
2019-06-26T04:09:56.019Z,20.50
2019-06-26T04:12:25.378Z,20.40
2019-06-26T04:14:54.840Z,20.50
2019-06-26T04:17:24.362Z,20.50
2019-06-26T04:19:54.900Z,20.50
2019-06-26T04:22:24.298Z,20.60
2019-06-26T04:24:53.728Z,20.60
2019-06-26T04:27:23.248Z,20.70
2019-06-26T04:29:54.969Z,20.70
2019-06-26T04:32:26.701Z,20.80
2019-06-26T04:35:04.510Z,20.90
2019-06-26T04:37:34.095Z,20.90
2019-06-26T04:40:06.518Z,21.00
2019-06-26T04:42:37.418Z,21.00
2019-06-26T04:45:07.914Z,21.10
2019-06-26T04:47:39.198Z,21.10
2019-06-26T04:50:09.663Z,21.20
2019-06-26T04:52:39.115Z,21.30
2019-06-26T04:55:08.686Z,21.40
2019-06-26T04:57:43.393Z,21.50
2019-06-26T05:00:14.513Z,21.60
2019-06-26T05:02:42.310Z,21.60
2019-06-26T05:05:13.561Z,21.60
2019-06-26T05:07:45.566Z,21.80
2019-06-26T05:10:18.974Z,21.90
2019-06-26T05:12:49.528Z,22.00
2019-06-26T05:15:32.182Z,22.10
2019-06-26T05:18:03.779Z,22.20
2019-06-26T05:20:36.182Z,22.30
2019-06-26T05:23:05.684Z,22.30
2019-06-26T05:25:35.234Z,22.50
2019-06-26T05:28:08.119Z,22.50
2019-06-26T05:30:36.185Z,22.80
2019-06-26T05:33:23.574Z,23.00
2019-06-26T05:35:43.771Z,23.20
2019-06-26T05:38:16.629Z,23.40
2019-06-26T05:40:47.419Z,23.70
2019-06-26T05:43:19.001Z,23.90
2019-06-26T05:45:50.054Z,24.00
2019-06-26T05:48:21.170Z,24.20
2019-06-26T05:50:50.708Z,24.30
2019-06-26T05:53:29.051Z,24.60
2019-06-26T05:55:58.631Z,24.80
2019-06-26T05:58:28.107Z,24.80
2019-06-26T06:00:57.526Z,24.90
2019-06-26T06:03:26.903Z,25.10
2019-06-26T06:05:56.450Z,25.30
2019-06-26T06:08:25.826Z,25.40
2019-06-26T06:10:58.154Z,25.70
2019-06-26T06:13:26.213Z,26.00
2019-06-26T06:15:55.626Z,26.20
2019-06-26T06:18:25.016Z,26.30
2019-06-26T06:20:54.430Z,26.70
2019-06-26T06:23:23.816Z,26.80
2019-06-26T06:25:53.186Z,26.70
2019-06-26T06:28:22.565Z,26.90
2019-06-26T06:30:52.007Z,27.00
2019-06-26T06:33:21.355Z,27.30
2019-06-26T06:35:50.695Z,27.40
2019-06-26T06:38:20.196Z,27.60
2019-06-26T06:40:49.528Z,27.60
2019-06-26T06:43:18.995Z,28.00
2019-06-26T06:45:48.310Z,28.20
2019-06-26T06:48:17.694Z,28.30
2019-06-26T06:50:47.117Z,28.50
2019-06-26T06:53:16.520Z,28.60
2019-06-26T06:55:45.859Z,28.80
2019-06-26T06:58:15.225Z,28.90
2019-06-26T07:00:44.604Z,29.00
2019-06-26T07:03:14.038Z,29.10
2019-06-26T07:05:43.473Z,28.60
2019-06-26T07:08:12.886Z,28.50
2019-06-26T07:10:42.244Z,28.60
2019-06-26T07:13:11.630Z,28.70
2019-06-26T07:15:41.069Z,28.50
2019-06-26T07:18:10.684Z,28.20
2019-06-26T07:20:40.230Z,28.40
2019-06-26T07:23:09.558Z,28.60
2019-06-26T07:25:38.924Z,28.60
2019-06-26T07:28:08.287Z,28.50
2019-06-26T07:30:37.682Z,28.70
2019-06-26T07:33:07.122Z,28.90
2019-06-26T07:35:36.495Z,29.00
2019-06-26T07:38:05.879Z,29.30
2019-06-26T07:40:35.225Z,29.60
2019-06-26T07:43:04.601Z,29.40
2019-06-26T07:45:34.026Z,29.30
2019-06-26T07:48:04.323Z,29.10
2019-06-26T07:50:33.759Z,29.30
2019-06-26T07:53:03.552Z,29.40
2019-06-26T07:55:32.978Z,29.30
2019-06-26T07:58:13.323Z,29.50
2019-06-26T08:00:43.009Z,29.50
2019-06-26T08:03:12.616Z,29.80
2019-06-26T08:05:43.217Z,29.90
2019-06-26T08:08:14.643Z,30.10
2019-06-26T08:10:44.073Z,30.00
2019-06-26T08:13:13.596Z,30.30
2019-06-26T08:15:43.155Z,30.60
2019-06-26T08:18:12.503Z,31.00
2019-06-26T08:21:00.546Z,31.30
2019-06-26T08:23:12.953Z,31.10
2019-06-26T08:25:42.431Z,31.30
2019-06-26T08:28:11.991Z,31.50
2019-06-26T08:30:44.952Z,31.70
2019-06-26T08:33:15.041Z,31.90
2019-06-26T08:35:44.417Z,31.90
2019-06-26T08:38:15.605Z,31.10
2019-06-26T08:40:44.876Z,31.70
2019-06-26T08:46:36.864Z,31.60
2019-06-26T08:49:29.694Z,31.60
2019-06-26T08:52:29.497Z,31.40
2019-06-26T08:55:34.532Z,32.00
2019-06-26T08:58:16.188Z,32.20
2019-06-26T09:00:50.636Z,32.30
2019-06-26T09:03:24.463Z,32.40
2019-06-26T09:06:02.038Z,32.60
2019-06-26T09:08:33.648Z,32.50
2019-06-26T09:11:05.390Z,32.80
2019-06-26T09:13:35.773Z,33.00
2019-06-26T09:16:05.279Z,32.90
2019-06-26T09:18:36.155Z,32.50
2019-06-26T09:21:09.537Z,33.00
2019-06-26T09:23:42.652Z,33.20
2019-06-26T09:26:14.039Z,33.30
2019-06-26T09:28:43.544Z,33.10
2019-06-26T09:31:12.971Z,32.80
2019-06-26T09:33:42.401Z,33.10
2019-06-26T09:36:11.829Z,33.20
2019-06-26T09:38:44.748Z,33.10
2019-06-26T09:41:13.986Z,33.30
2019-06-26T09:43:43.493Z,33.70
2019-06-26T09:46:12.933Z,34.10
2019-06-26T09:48:52.858Z,33.60
2019-06-26T09:51:14.045Z,33.60
2019-06-26T09:53:47.740Z,33.70
2019-06-26T09:56:14.512Z,33.90
2019-06-26T09:58:44.101Z,33.80
2019-06-26T10:01:13.725Z,33.20
2019-06-26T10:03:45.201Z,33.30
2019-06-26T10:06:15.018Z,34.00
2019-06-26T10:08:47.658Z,34.70
2019-06-26T10:11:18.977Z,34.60
2019-06-26T10:13:48.506Z,34.40
2019-06-26T10:16:19.271Z,34.20
2019-06-26T10:18:48.785Z,34.30
2019-06-26T10:21:18.362Z,34.60
2019-06-26T10:23:48.143Z,34.50
2019-06-26T10:26:17.535Z,34.70
2019-06-26T10:28:46.967Z,35.00
2019-06-26T10:31:18.523Z,34.80
2019-06-26T10:33:47.372Z,35.10
2019-06-26T10:36:16.847Z,35.10
2019-06-26T10:38:46.269Z,34.90
2019-06-26T10:41:15.724Z,34.90
2019-06-26T10:43:45.118Z,35.20
2019-06-26T10:46:14.815Z,35.00
2019-06-26T10:48:44.267Z,34.90
2019-06-26T10:51:17.371Z,35.20
2019-06-26T10:53:46.713Z,35.20
2019-06-26T10:56:16.101Z,35.10
2019-06-26T10:58:45.555Z,35.10
2019-06-26T11:01:15.107Z,35.60
2019-06-26T11:03:44.881Z,36.10
2019-06-26T11:06:14.555Z,35.30
2019-06-26T11:08:43.887Z,35.40
2019-06-26T11:11:13.344Z,35.90
2019-06-26T11:13:42.744Z,35.90
2019-06-26T11:16:14.260Z,36.30
2019-06-26T11:18:43.674Z,37.20
2019-06-26T11:21:13.391Z,37.90
2019-06-26T11:23:42.882Z,38.40
2019-06-26T11:26:12.244Z,37.90
2019-06-26T11:28:41.681Z,37.40
2019-06-26T11:31:11.062Z,36.60
2019-06-26T11:33:40.425Z,37.20
2019-06-26T11:36:09.890Z,36.70
2019-06-26T11:38:39.306Z,36.70
2019-06-26T11:41:08.799Z,37.00
2019-06-26T11:43:38.339Z,37.30
2019-06-26T11:46:07.748Z,37.90
2019-06-26T11:48:37.192Z,37.80
2019-06-26T11:51:06.595Z,38.20
2019-06-26T11:53:36.094Z,37.80
2019-06-26T11:56:05.532Z,37.50
2019-06-26T11:58:34.932Z,38.30
2019-06-26T12:01:04.390Z,38.40
2019-06-26T12:03:33.812Z,37.90
2019-06-26T12:06:15.719Z,37.30
2019-06-26T12:08:34.645Z,37.30
2019-06-26T12:11:04.886Z,36.70
2019-06-26T12:13:34.455Z,36.80
2019-06-26T12:16:03.842Z,36.80
2019-06-26T12:18:33.337Z,37.00
2019-06-26T12:21:02.697Z,37.20
2019-06-26T12:23:32.166Z,37.10
2019-06-26T12:26:01.604Z,37.30
2019-06-26T12:28:31.017Z,37.70
2019-06-26T12:31:00.759Z,37.30
2019-06-26T12:33:30.292Z,37.00
2019-06-26T12:35:59.747Z,37.10
2019-06-26T12:38:29.145Z,37.00
2019-06-26T12:40:58.951Z,36.40
2019-06-26T12:43:28.254Z,36.10
2019-06-26T12:45:57.814Z,35.40
2019-06-26T12:48:28.882Z,34.60
2019-06-26T12:50:58.444Z,34.60
2019-06-26T12:53:29.392Z,34.60
2019-06-26T12:55:59.637Z,34.70
2019-06-26T12:58:29.105Z,34.80
2019-06-26T13:00:59.465Z,34.40
2019-06-26T13:03:28.874Z,34.10
2019-06-26T13:05:58.219Z,33.90
2019-06-26T13:08:27.684Z,33.90
2019-06-26T13:10:57.144Z,33.80
2019-06-26T13:13:26.566Z,33.90
2019-06-26T13:15:55.955Z,34.00
2019-06-26T13:18:25.586Z,34.10
2019-06-26T13:20:54.990Z,34.10
2019-06-26T13:23:24.347Z,34.30
2019-06-26T13:25:53.712Z,34.30
2019-06-26T13:28:23.138Z,34.20
2019-06-26T13:30:53.506Z,34.10
2019-06-26T13:33:23.046Z,33.70
2019-06-26T13:35:52.385Z,33.70
2019-06-26T13:38:21.774Z,33.60
2019-06-26T13:40:51.313Z,33.60
2019-06-26T13:43:20.737Z,33.60
2019-06-26T13:45:50.239Z,33.60
2019-06-26T13:48:19.654Z,33.60
2019-06-26T13:50:49.194Z,33.60
2019-06-26T13:53:21.737Z,33.70
2019-06-26T13:55:57.406Z,33.60
2019-06-26T13:58:28.613Z,33.40
2019-06-26T14:00:58.081Z,33.30
2019-06-26T14:03:27.743Z,33.30
2019-06-26T14:05:57.274Z,33.40
2019-06-26T14:08:26.669Z,33.30
2019-06-26T14:10:57.062Z,33.30
2019-06-26T14:13:26.602Z,33.40
2019-06-26T14:15:56.105Z,33.30
2019-06-26T14:18:25.493Z,33.30
2019-06-26T14:20:54.934Z,33.40
2019-06-26T14:23:25.278Z,33.40
2019-06-26T14:25:54.777Z,33.50
2019-06-26T14:28:24.226Z,33.30
2019-06-26T14:30:53.695Z,33.30
2019-06-26T14:33:23.076Z,33.40
2019-06-26T14:35:52.781Z,33.40
2019-06-26T14:38:22.512Z,33.50
2019-06-26T14:40:51.927Z,33.30
2019-06-26T14:43:21.329Z,33.50
2019-06-26T14:45:50.785Z,33.40
2019-06-26T14:48:20.263Z,33.30
2019-06-26T14:50:49.688Z,33.30
2019-06-26T14:53:19.063Z,33.50
2019-06-26T14:55:48.469Z,33.50
2019-06-26T14:58:17.936Z,33.50
2019-06-26T15:00:48.384Z,33.40
2019-06-26T15:03:17.770Z,33.30
2019-06-26T15:05:47.188Z,33.40
2019-06-26T15:08:16.790Z,33.40
2019-06-26T15:10:47.985Z,33.40
2019-06-26T15:13:17.715Z,33.40
2019-06-26T15:15:50.510Z,33.40
2019-06-26T15:18:21.027Z,33.60
2019-06-26T15:20:50.577Z,33.60
2019-06-26T15:23:19.990Z,33.40
2019-06-26T15:25:49.988Z,33.40
2019-06-26T15:28:19.402Z,33.30
2019-06-26T15:30:48.757Z,33.30
2019-06-26T15:33:20.876Z,33.30
2019-06-26T15:35:50.349Z,33.30
2019-06-26T15:38:19.802Z,33.30
2019-06-26T15:40:49.321Z,33.30
2019-06-26T15:43:18.718Z,33.30
2019-06-26T15:45:48.077Z,33.30
2019-06-26T15:48:18.046Z,33.30
2019-06-26T15:50:48.600Z,33.20
2019-06-26T15:53:18.810Z,33.20
2019-06-26T15:55:49.663Z,33.20
2019-06-26T15:58:19.239Z,33.10
2019-06-26T16:00:48.652Z,33.20
2019-06-26T16:03:19.424Z,33.20
2019-06-26T16:05:48.808Z,33.10
2019-06-26T16:08:18.252Z,33.10
2019-06-26T16:10:47.794Z,33.10
2019-06-26T16:13:18.139Z,33.20
2019-06-26T16:15:47.543Z,33.20
2019-06-26T16:18:21.609Z,33.20
2019-06-26T16:20:56.261Z,33.20
2019-06-26T16:23:28.677Z,33.20
2019-06-26T16:25:58.056Z,33.10
2019-06-26T16:28:27.574Z,33.10
2019-06-26T16:30:57.066Z,33.00
2019-06-26T16:33:26.412Z,33.00
2019-06-26T16:35:55.840Z,33.10
2019-06-26T16:38:25.320Z,33.00
2019-06-26T16:40:55.146Z,33.10
2019-06-26T16:43:24.602Z,33.20
2019-06-26T16:45:54.008Z,33.20
2019-06-26T16:48:23.433Z,33.10
2019-06-26T16:50:52.951Z,33.10
2019-06-26T16:53:24.054Z,33.10
2019-06-26T16:55:53.392Z,33.10
2019-06-26T16:58:22.797Z,33.10
2019-06-26T17:00:56.722Z,33.10
2019-06-26T17:03:29.678Z,33.10
2019-06-26T17:06:01.214Z,33.00
2019-06-26T17:08:30.631Z,33.00
2019-06-26T17:10:59.981Z,33.00
2019-06-26T17:13:29.450Z,33.10
2019-06-26T17:15:58.843Z,33.10
2019-06-26T17:18:28.219Z,33.00
2019-06-26T17:20:57.638Z,32.90
2019-06-26T17:23:27.143Z,32.90
2019-06-26T17:25:56.610Z,32.80
2019-06-26T17:28:25.961Z,32.80
2019-06-26T17:30:58.646Z,32.80
2019-06-26T17:33:29.034Z,32.70
2019-06-26T17:36:08.117Z,32.70
2019-06-26T17:38:38.060Z,32.70
2019-06-26T17:41:07.573Z,32.80
2019-06-26T17:43:38.843Z,32.70
2019-06-26T17:46:08.186Z,32.70
2019-06-26T17:48:37.589Z,32.60
2019-06-26T17:51:07.013Z,32.50
2019-06-26T17:53:36.416Z,32.50
2019-06-26T17:56:05.901Z,32.40
2019-06-26T17:58:35.249Z,32.30
2019-06-26T18:01:06.454Z,32.30
2019-06-26T18:03:36.793Z,32.20
2019-06-26T18:06:06.164Z,32.10
2019-06-26T18:08:37.211Z,32.10
2019-06-26T18:11:06.578Z,32.10
2019-06-26T18:13:35.946Z,32.10
2019-06-26T18:16:14.223Z,32.00
2019-06-26T18:18:43.522Z,31.90
2019-06-26T18:21:12.889Z,31.90
2019-06-26T18:23:42.310Z,31.80
2019-06-26T18:26:13.372Z,31.80
2019-06-26T18:28:42.587Z,31.70
2019-06-26T18:31:12.007Z,31.50
2019-06-26T18:33:44.377Z,31.40
2019-06-26T18:36:13.440Z,31.40
2019-06-26T18:38:43.723Z,31.30
2019-06-26T18:41:13.100Z,31.20
2019-06-26T18:43:42.416Z,31.00
2019-06-26T18:46:11.676Z,30.90
2019-06-26T18:48:40.994Z,30.80
2019-06-26T18:51:10.259Z,30.70
2019-06-26T18:53:52.696Z,30.70
2019-06-26T18:56:10.527Z,30.60
2019-06-26T18:58:39.805Z,30.60
2019-06-26T19:01:09.108Z,30.50
2019-06-26T19:03:38.414Z,30.50
2019-06-26T19:06:07.669Z,30.40
2019-06-26T19:08:37.000Z,30.40
2019-06-26T19:11:06.338Z,30.30
2019-06-26T19:13:36.614Z,30.10
2019-06-26T19:16:05.898Z,30.00
2019-06-26T19:18:35.954Z,29.90
2019-06-26T19:21:05.294Z,29.80
2019-06-26T19:23:35.466Z,29.80
2019-06-26T19:26:04.738Z,29.70
2019-06-26T19:28:33.976Z,29.70
2019-06-26T19:31:03.270Z,29.70
2019-06-26T19:33:35.630Z,29.70
2019-06-26T19:36:04.919Z,29.60
2019-06-26T19:38:35.359Z,29.60
2019-06-26T19:41:13.929Z,29.50
2019-06-26T19:43:43.217Z,29.50
2019-06-26T19:46:12.488Z,29.50
2019-06-26T19:48:41.843Z,29.40
2019-06-26T19:51:14.221Z,29.30
2019-06-26T19:53:43.592Z,29.30
2019-06-26T19:56:12.954Z,29.20
2019-06-26T19:58:42.306Z,29.00
2019-06-26T20:01:13.362Z,29.00
2019-06-26T20:03:42.790Z,29.00
2019-06-26T20:06:14.181Z,29.00
2019-06-26T20:08:53.350Z,28.90
2019-06-26T20:11:14.476Z,28.80
2019-06-26T20:13:43.847Z,28.80
2019-06-26T20:16:13.256Z,28.80
2019-06-26T20:18:42.633Z,28.70
2019-06-26T20:21:11.984Z,28.60
2019-06-26T20:23:41.376Z,28.50
2019-06-26T20:26:10.718Z,28.50
2019-06-26T20:28:41.983Z,28.50
2019-06-26T20:31:11.282Z,28.40
2019-06-26T20:33:46.563Z,28.30
2019-06-26T20:36:15.953Z,28.30
2019-06-26T20:38:45.316Z,28.20
2019-06-26T20:41:14.660Z,28.20
2019-06-26T20:43:45.545Z,28.10
2019-06-26T20:46:15.668Z,28.00
2019-06-26T20:48:45.216Z,27.90
2019-06-26T20:51:14.606Z,27.90
2019-06-26T20:53:43.979Z,27.90
2019-06-26T20:56:13.348Z,27.70
2019-06-26T20:58:42.626Z,27.70
2019-06-26T21:01:12.964Z,27.60
2019-06-26T21:03:42.947Z,27.50
2019-06-26T21:06:12.361Z,27.60
2019-06-26T21:08:41.738Z,27.50
2019-06-26T21:11:11.197Z,27.40
2019-06-26T21:13:41.511Z,27.40
2019-06-26T21:16:13.539Z,27.30
2019-06-26T21:18:42.771Z,27.30
2019-06-26T21:21:12.100Z,27.20
2019-06-26T21:23:41.396Z,27.10
2019-06-26T21:26:10.668Z,27.10
2019-06-26T21:28:39.917Z,27.10
2019-06-26T21:31:09.163Z,27.10
2019-06-26T21:33:39.418Z,26.90
2019-06-26T21:36:08.659Z,26.90
2019-06-26T21:38:37.918Z,26.90
2019-06-26T21:41:07.344Z,26.90
2019-06-26T21:43:36.611Z,26.90
2019-06-26T21:46:05.930Z,26.80
2019-06-26T21:48:35.249Z,26.80
2019-06-26T21:51:05.477Z,26.80
2019-06-26T21:53:34.722Z,26.80
2019-06-26T21:56:21.697Z,26.70
2019-06-26T21:59:12.383Z,26.70
2019-06-26T22:01:59.299Z,26.70
2019-06-26T22:04:46.506Z,26.70
2019-06-26T22:07:20.078Z,26.50
2019-06-26T22:10:04.679Z,26.50
2019-06-26T22:12:35.547Z,26.50
2019-06-26T22:15:05.054Z,26.50
2019-06-26T22:17:34.856Z,26.50
2019-06-26T22:20:11.314Z,26.40
2019-06-26T22:22:37.888Z,26.40
2019-06-26T22:25:07.174Z,26.40
2019-06-26T22:27:37.544Z,26.20
2019-06-26T22:30:07.893Z,26.20
2019-06-26T22:32:37.251Z,26.30
2019-06-26T22:35:06.529Z,26.30
2019-06-26T22:37:35.765Z,26.30
2019-06-26T22:40:05.139Z,26.30
2019-06-26T22:42:34.386Z,26.20
2019-06-26T22:45:04.023Z,26.20
2019-06-26T22:47:33.287Z,26.20
2019-06-26T22:50:02.903Z,26.20
2019-06-26T22:52:32.252Z,26.20
2019-06-26T22:55:01.616Z,26.10
2019-06-26T22:57:30.999Z,26.10
2019-06-26T23:00:00.379Z,26.00
2019-06-26T23:02:29.840Z,26.00
2019-06-26T23:04:59.107Z,26.00
2019-06-26T23:07:28.366Z,25.90
2019-06-26T23:09:57.683Z,25.90
2019-06-26T23:12:26.933Z,25.90
2019-06-26T23:14:56.190Z,25.80
2019-06-26T23:17:25.494Z,25.90
2019-06-26T23:19:54.781Z,25.80
2019-06-26T23:22:24.033Z,25.80
2019-06-26T23:24:53.414Z,25.70
2019-06-26T23:27:22.728Z,25.70
2019-06-26T23:29:51.980Z,25.70
2019-06-26T23:32:21.236Z,25.70
2019-06-26T23:34:50.482Z,25.70
2019-06-26T23:37:19.727Z,25.60
2019-06-26T23:39:49.021Z,25.60
2019-06-26T23:42:18.594Z,25.60
2019-06-26T23:44:47.850Z,25.50
2019-06-26T23:47:17.176Z,25.50
2019-06-26T23:49:46.419Z,25.40
2019-06-26T23:52:15.726Z,25.50
2019-06-26T23:54:53.680Z,25.40
2019-06-26T23:57:22.929Z,25.40
2019-06-26T23:59:52.177Z,25.40
